createdAt,value
2024-04-16T00:00:41.835Z,13.07
2024-04-16T00:01:46.789Z,14.05
2024-04-16T00:02:49.033Z,12.02
2024-04-16T00:03:51.487Z,13.63
2024-04-16T00:04:56.414Z,14.00
2024-04-16T00:06:01.511Z,14.13
2024-04-16T00:07:03.931Z,12.02
2024-04-16T00:08:09.099Z,12.13
2024-04-16T00:09:11.659Z,11.07
2024-04-16T00:10:14.349Z,16.88
2024-04-16T00:11:16.659Z,12.63
2024-04-16T00:12:21.750Z,15.07
2024-04-16T00:13:44.144Z,13.60
2024-04-16T00:14:59.408Z,16.10
2024-04-16T00:16:06.270Z,14.77
2024-04-16T00:17:10.319Z,11.52
2024-04-16T00:18:12.725Z,14.50
2024-04-16T00:19:15.128Z,13.30
2024-04-16T00:20:20.436Z,12.55
2024-04-16T00:21:25.704Z,16.70
2024-04-16T00:22:28.438Z,13.45
2024-04-16T00:23:30.897Z,14.57
2024-04-16T00:24:35.883Z,15.57
2024-04-16T00:25:38.167Z,14.90
2024-04-16T00:26:40.670Z,14.45
2024-04-16T00:27:43.706Z,15.02
2024-04-16T00:28:48.896Z,13.73
2024-04-16T00:29:51.094Z,13.75
2024-04-16T00:30:53.291Z,13.07
2024-04-16T00:31:55.467Z,12.25
2024-04-16T00:33:07.789Z,14.65
2024-04-16T00:34:09.983Z,10.43
2024-04-16T00:35:12.403Z,10.98
2024-04-16T00:36:14.448Z,10.98
2024-04-16T00:37:23.537Z,8.48
2024-04-16T00:38:25.890Z,10.30
2024-04-16T00:39:28.112Z,8.00
2024-04-16T00:40:30.296Z,7.90
2024-04-16T00:41:35.206Z,7.32
2024-04-16T00:42:37.536Z,6.90
2024-04-16T00:43:39.952Z,6.93
2024-04-16T00:44:45.296Z,7.72
2024-04-16T00:45:50.848Z,7.00
2024-04-16T00:46:52.932Z,8.82
2024-04-16T00:47:55.571Z,8.57
2024-04-16T00:49:00.606Z,7.43
2024-04-16T00:50:03.246Z,5.50
2024-04-16T00:51:05.917Z,7.25
2024-04-16T00:52:08.155Z,7.63
2024-04-16T00:53:16.229Z,7.38
2024-04-16T00:54:18.688Z,5.25
2024-04-16T00:55:21.246Z,6.85
2024-04-16T00:56:23.884Z,5.55
2024-04-16T00:57:28.984Z,4.32
2024-04-16T00:58:33.386Z,4.07
2024-04-16T00:59:35.885Z,3.40
2024-04-16T01:00:37.988Z,7.45
2024-04-16T01:01:43.424Z,4.82
2024-04-16T01:02:45.700Z,3.97
2024-04-16T01:03:47.755Z,5.07
2024-04-16T01:04:50.013Z,4.65
2024-04-16T01:05:58.165Z,3.35
2024-04-16T01:07:00.930Z,3.58
2024-04-16T01:08:03.488Z,3.40
2024-04-16T01:09:11.472Z,3.40
2024-04-16T01:10:17.353Z,2.90
2024-04-16T01:11:23.830Z,2.83
2024-04-16T01:12:26.028Z,2.45
2024-04-16T01:13:28.426Z,2.30
2024-04-16T01:14:33.335Z,3.13
2024-04-16T01:15:35.576Z,3.50
2024-04-16T01:16:37.892Z,2.25
2024-04-16T01:17:41.407Z,3.65
2024-04-16T01:18:46.801Z,3.17
2024-04-16T01:19:49.025Z,1.85
2024-04-16T01:20:51.591Z,1.73
2024-04-16T01:21:53.799Z,2.70
2024-04-16T01:23:01.471Z,1.90
2024-04-16T01:24:03.712Z,1.90
2024-04-16T01:25:06.494Z,2.65
2024-04-16T01:26:08.703Z,1.98
2024-04-16T01:27:13.348Z,2.13
2024-04-16T01:28:15.565Z,1.65
2024-04-16T01:29:17.812Z,2.10
2024-04-16T01:30:22.589Z,2.42
2024-04-16T01:31:25.052Z,1.65
2024-04-16T01:32:27.419Z,2.42
2024-04-16T01:33:32.484Z,2.13
2024-04-16T01:34:35.503Z,1.75
2024-04-16T01:35:37.648Z,1.60
2024-04-16T01:36:42.474Z,5.70
2024-04-16T01:37:44.534Z,2.00
2024-04-16T01:38:49.415Z,1.55
2024-04-16T01:39:54.410Z,1.67
2024-04-16T01:40:56.818Z,1.77
2024-04-16T01:41:59.001Z,1.83
2024-04-16T01:43:03.776Z,1.70
2024-04-16T01:44:06.032Z,1.60
2024-04-16T01:45:10.526Z,1.60
2024-04-16T01:46:15.543Z,2.33
2024-04-16T01:47:17.976Z,1.85
2024-04-16T01:48:20.227Z,1.90
2024-04-16T01:49:22.448Z,1.98
2024-04-16T01:50:27.304Z,4.45
2024-04-16T01:51:29.559Z,4.45
2024-04-16T01:52:31.856Z,1.52
2024-04-16T01:53:37.430Z,1.83
2024-04-16T01:54:42.210Z,1.98
2024-04-16T01:55:44.388Z,1.80
2024-04-16T01:56:47.088Z,1.70
2024-04-16T01:57:52.756Z,1.52
2024-04-16T01:58:55.024Z,1.85
2024-04-16T01:59:57.207Z,1.73
2024-04-16T02:01:00.256Z,2.70
2024-04-16T02:02:05.951Z,1.70
2024-04-16T02:03:08.473Z,1.90
2024-04-16T02:04:10.986Z,2.88
2024-04-16T02:05:14.011Z,4.20
2024-04-16T02:06:19.122Z,1.88
2024-04-16T02:07:21.523Z,1.67
2024-04-16T02:08:24.102Z,2.20
2024-04-16T02:09:26.298Z,1.98
2024-04-16T02:10:33.874Z,1.70
2024-04-16T02:11:36.000Z,2.35
2024-04-16T02:12:38.113Z,2.45
2024-04-16T02:13:42.954Z,2.08
2024-04-16T02:14:45.627Z,3.35
2024-04-16T02:15:47.798Z,1.73
2024-04-16T02:16:52.867Z,2.10
2024-04-16T02:17:55.376Z,1.50
2024-04-16T02:18:57.680Z,2.20
2024-04-16T02:19:59.896Z,3.80
2024-04-16T02:21:04.709Z,1.90
2024-04-16T02:22:06.828Z,2.05
2024-04-16T02:23:09.447Z,2.80
2024-04-16T02:24:11.538Z,1.90
2024-04-16T02:25:13.676Z,2.35
2024-04-16T02:26:21.097Z,2.00
2024-04-16T02:27:23.358Z,2.25
2024-04-16T02:28:25.599Z,1.58
2024-04-16T02:29:31.248Z,1.73
2024-04-16T02:30:35.099Z,2.00
2024-04-16T02:31:37.308Z,2.17
2024-04-16T02:32:39.803Z,1.73
2024-04-16T02:33:44.764Z,1.95
2024-04-16T02:34:46.911Z,4.18
2024-04-16T02:35:49.108Z,1.63
2024-04-16T02:36:51.224Z,2.00
2024-04-16T02:37:56.471Z,1.48
2024-04-16T02:38:58.751Z,2.35
2024-04-16T02:40:01.000Z,1.70
2024-04-16T02:41:03.329Z,5.15
2024-04-16T02:42:10.810Z,2.92
2024-04-16T02:43:12.985Z,1.60
2024-04-16T02:44:15.102Z,1.40
2024-04-16T02:45:17.427Z,1.60
2024-04-16T02:46:22.730Z,1.23
2024-04-16T02:47:24.924Z,1.40
2024-04-16T02:48:27.165Z,1.55
2024-04-16T02:49:29.501Z,2.45
2024-04-16T02:50:31.730Z,1.23
2024-04-16T02:51:36.491Z,2.75
2024-04-16T02:52:38.806Z,1.42
2024-04-16T02:53:41.056Z,1.38
2024-04-16T02:54:43.349Z,1.52
2024-04-16T02:55:48.070Z,1.33
2024-04-16T02:56:50.318Z,1.33
2024-04-16T02:57:55.042Z,1.50
2024-04-16T02:58:57.207Z,1.25
2024-04-16T03:00:01.947Z,1.23
2024-04-16T03:01:05.477Z,1.55
2024-04-16T03:02:08.200Z,1.40
2024-04-16T03:03:12.027Z,1.17
2024-04-16T03:04:16.887Z,1.33
2024-04-16T03:05:19.393Z,1.50
2024-04-16T03:06:21.618Z,0.90
2024-04-16T03:07:24.134Z,1.17
2024-04-16T03:08:28.947Z,1.40
2024-04-16T03:09:30.943Z,2.25
2024-04-16T03:10:33.232Z,1.42
2024-04-16T03:11:38.120Z,1.33
2024-04-16T03:12:40.147Z,1.48
2024-04-16T03:13:45.594Z,2.08
2024-04-16T03:14:47.782Z,1.80
2024-04-16T03:15:52.531Z,1.13
2024-04-16T03:16:54.762Z,1.40
2024-04-16T03:17:57.008Z,1.20
2024-04-16T03:19:00.439Z,1.08
2024-04-16T03:20:05.485Z,0.95
2024-04-16T03:21:07.676Z,1.00
2024-04-16T03:22:10.678Z,1.35
2024-04-16T03:23:13.033Z,1.00
2024-04-16T03:24:17.811Z,1.75
2024-04-16T03:25:20.121Z,1.15
2024-04-16T03:26:22.306Z,2.47
2024-04-16T03:27:24.440Z,0.90
2024-04-16T03:28:29.189Z,1.20
2024-04-16T03:29:33.872Z,2.17
2024-04-16T03:30:36.121Z,1.42
2024-04-16T03:31:38.820Z,2.33
2024-04-16T03:32:43.689Z,1.30
2024-04-16T03:33:45.795Z,0.90
2024-04-16T03:34:47.930Z,1.10
2024-04-16T03:35:56.470Z,1.65
2024-04-16T03:37:02.008Z,2.85
2024-04-16T03:38:04.639Z,1.10
2024-04-16T03:39:06.852Z,1.38
2024-04-16T03:40:13.111Z,1.20
2024-04-16T03:41:15.356Z,1.77
2024-04-16T03:42:17.597Z,1.20
2024-04-16T03:43:22.373Z,1.77
2024-04-16T03:44:24.577Z,1.33
2024-04-16T03:45:29.425Z,4.60
2024-04-16T03:46:34.321Z,1.00
2024-04-16T03:47:36.602Z,1.20
2024-04-16T03:48:38.850Z,1.50
2024-04-16T03:49:43.650Z,1.00
2024-04-16T03:50:45.881Z,1.10
2024-04-16T03:51:48.021Z,1.52
2024-04-16T03:52:50.156Z,1.42
2024-04-16T03:53:55.137Z,1.40
2024-04-16T03:54:57.484Z,1.70
2024-04-16T03:56:01.334Z,1.25
2024-04-16T03:57:04.165Z,1.38
2024-04-16T03:58:09.522Z,1.10
2024-04-16T03:59:26.776Z,3.42
2024-04-16T04:00:50.215Z,1.92
2024-04-16T04:01:55.009Z,2.05
2024-04-16T04:03:00.656Z,1.98
2024-04-16T04:04:02.964Z,2.53
2024-04-16T04:05:08.475Z,1.60
2024-04-16T04:06:11.572Z,1.40
2024-04-16T04:07:13.875Z,1.55
2024-04-16T04:08:18.989Z,1.42
2024-04-16T04:09:21.696Z,1.52
2024-04-16T04:10:23.884Z,1.95
2024-04-16T04:11:26.556Z,2.63
2024-04-16T04:12:31.559Z,2.28
2024-04-16T04:13:33.928Z,2.30
2024-04-16T04:14:36.325Z,2.28
2024-04-16T04:15:43.609Z,1.80
2024-04-16T04:17:13.545Z,2.00
2024-04-16T04:18:15.921Z,2.60
2024-04-16T04:19:21.540Z,2.08
2024-04-16T04:20:23.833Z,2.00
2024-04-16T04:21:28.934Z,2.55
2024-04-16T04:22:34.410Z,2.20
2024-04-16T04:23:36.693Z,2.50
2024-04-16T04:24:43.473Z,2.83
2024-04-16T04:26:14.492Z,2.58
2024-04-16T04:27:56.225Z,2.67
2024-04-16T04:28:58.397Z,2.22
2024-04-16T04:30:00.939Z,2.33
2024-04-16T04:31:17.901Z,1.80
2024-04-16T04:33:39.033Z,1.20
2024-04-16T04:34:42.828Z,2.00
2024-04-16T04:35:47.706Z,2.35
2024-04-16T04:36:53.211Z,1.00
2024-04-16T04:38:02.724Z,1.60
2024-04-16T04:39:07.756Z,2.25
2024-04-16T04:40:12.474Z,0.95
2024-04-16T04:41:14.832Z,1.23
2024-04-16T04:42:17.296Z,1.35
2024-04-16T04:43:22.237Z,0.88
2024-04-16T04:44:27.506Z,1.50
2024-04-16T04:45:29.897Z,0.90
2024-04-16T04:46:37.376Z,2.00
2024-04-16T04:47:39.835Z,0.90
2024-04-16T04:48:42.432Z,2.13
2024-04-16T04:49:44.945Z,0.60
2024-04-16T04:50:49.839Z,2.05
2024-04-16T04:51:52.180Z,0.80
2024-04-16T04:52:54.581Z,0.85
2024-04-16T04:53:56.776Z,0.80
2024-04-16T04:55:07.503Z,1.20
2024-04-16T04:56:12.448Z,0.93
2024-04-16T04:57:14.626Z,0.90
2024-04-16T04:58:16.890Z,0.95
2024-04-16T04:59:21.997Z,1.05
2024-04-16T05:00:24.288Z,0.60
2024-04-16T05:01:26.926Z,2.13
2024-04-16T05:02:34.524Z,0.70
2024-04-16T05:03:36.997Z,0.82
2024-04-16T05:04:40.731Z,1.00
2024-04-16T05:05:46.665Z,1.98
2024-04-16T05:06:51.547Z,1.45
2024-04-16T05:07:53.847Z,1.00
2024-04-16T05:08:56.506Z,0.98
2024-04-16T05:09:58.765Z,0.50
2024-04-16T05:11:03.652Z,0.70
2024-04-16T05:12:06.156Z,0.50
2024-04-16T05:13:08.244Z,0.70
2024-04-16T05:14:12.691Z,0.85
2024-04-16T05:15:21.254Z,0.80
2024-04-16T05:16:24.307Z,0.88
2024-04-16T05:17:27.671Z,0.85
2024-04-16T05:18:33.550Z,0.88
2024-04-16T05:19:38.887Z,1.23
2024-04-16T05:20:41.257Z,1.05
2024-04-16T05:21:43.624Z,0.90
2024-04-16T05:23:08.090Z,3.45
2024-04-16T05:24:16.854Z,0.70
2024-04-16T05:25:18.988Z,1.20
2024-04-16T05:26:28.162Z,1.08
2024-04-16T05:27:32.602Z,2.17
2024-04-16T05:28:35.045Z,1.63
2024-04-16T05:29:39.971Z,3.28
2024-04-16T05:30:42.310Z,2.13
2024-04-16T05:31:44.649Z,1.67
2024-04-16T05:32:49.779Z,1.42
2024-04-16T05:33:55.538Z,1.30
2024-04-16T05:34:57.884Z,2.75
2024-04-16T05:36:05.436Z,1.55
2024-04-16T05:37:12.233Z,1.35
2024-04-16T05:38:14.865Z,1.33
2024-04-16T05:39:17.360Z,0.98
2024-04-16T05:40:22.113Z,1.45
2024-04-16T05:41:27.444Z,1.27
2024-04-16T05:42:30.125Z,1.35
2024-04-16T05:43:36.289Z,1.10
2024-04-16T05:44:38.719Z,1.13
2024-04-16T05:45:41.554Z,1.40
2024-04-16T05:46:45.760Z,1.10
2024-04-16T05:47:51.272Z,3.45
2024-04-16T05:49:00.159Z,0.73
2024-04-16T05:50:08.367Z,0.73
2024-04-16T05:51:10.813Z,1.25
2024-04-16T05:52:15.943Z,0.80
2024-04-16T05:53:51.894Z,0.80
2024-04-16T05:54:54.699Z,1.70
2024-04-16T05:55:59.654Z,0.85
2024-04-16T05:57:08.205Z,0.88
2024-04-16T05:58:31.796Z,1.50
2024-04-16T05:59:37.639Z,0.73
2024-04-16T06:00:40.003Z,1.52
2024-04-16T06:01:45.192Z,1.00
2024-04-16T06:02:47.489Z,1.77
2024-04-16T06:03:52.269Z,1.05
2024-04-16T06:04:57.312Z,1.08
2024-04-16T06:06:02.100Z,1.40
2024-04-16T06:07:07.501Z,0.75
2024-04-16T06:08:12.850Z,1.42
2024-04-16T06:09:15.022Z,1.77
2024-04-16T06:10:20.002Z,1.85
2024-04-16T06:11:25.192Z,1.67
2024-04-16T06:14:14.813Z,1.42
2024-04-16T06:15:20.817Z,2.00
2024-04-16T06:16:23.093Z,1.85
2024-04-16T06:17:25.306Z,1.20
2024-04-16T06:18:35.609Z,1.40
2024-04-16T06:19:38.864Z,1.33
2024-04-16T06:20:44.134Z,1.23
2024-04-16T06:22:12.687Z,1.05
2024-04-16T06:23:23.444Z,0.77
2024-04-16T06:24:25.819Z,1.10
2024-04-16T06:25:28.386Z,0.82
2024-04-16T06:26:34.815Z,1.30
2024-04-16T06:27:37.111Z,1.92
2024-04-16T06:28:39.475Z,1.35
2024-04-16T06:29:44.622Z,2.10
2024-04-16T06:30:47.636Z,0.82
2024-04-16T06:31:50.191Z,1.27
2024-04-16T06:32:58.320Z,2.88
2024-04-16T06:34:02.625Z,1.20
2024-04-16T06:35:05.901Z,0.80
2024-04-16T06:36:13.985Z,1.15
2024-04-16T06:37:18.550Z,1.48
2024-04-16T06:39:00.630Z,1.27
2024-04-16T06:40:05.681Z,0.77
2024-04-16T06:41:08.207Z,1.45
2024-04-16T06:42:14.787Z,0.90
2024-04-16T06:43:18.968Z,0.90
2024-04-16T06:44:26.443Z,1.25
2024-04-16T06:45:28.630Z,1.98
2024-04-16T06:46:30.936Z,1.10
2024-04-16T06:47:36.118Z,0.70
2024-04-16T06:48:39.301Z,1.27
2024-04-16T06:49:41.876Z,0.90
2024-04-16T06:50:49.507Z,2.33
2024-04-16T06:51:54.936Z,1.63
2024-04-16T06:53:11.076Z,1.33
2024-04-16T06:54:16.070Z,1.48
2024-04-16T06:55:21.054Z,1.38
2024-04-16T06:56:23.311Z,0.90
2024-04-16T06:57:25.682Z,2.45
2024-04-16T06:58:28.150Z,1.60
2024-04-16T06:59:33.329Z,1.25
2024-04-16T07:00:38.160Z,1.10
2024-04-16T07:03:43.982Z,1.60
2024-04-16T07:04:47.038Z,1.70
2024-04-16T07:05:49.455Z,1.00
2024-04-16T07:07:00.680Z,1.90
2024-04-16T07:08:04.718Z,3.22
2024-04-16T07:09:09.183Z,0.60
2024-04-16T07:10:12.412Z,1.17
2024-04-16T07:11:18.117Z,2.17
2024-04-16T07:12:20.319Z,3.05
2024-04-16T07:13:22.445Z,1.30
2024-04-16T07:14:24.702Z,2.42
2024-04-16T07:15:46.690Z,1.35
2024-04-16T07:16:49.132Z,1.13
2024-04-16T07:17:51.900Z,1.38
2024-04-16T07:19:12.839Z,1.40
2024-04-16T07:20:18.691Z,0.90
2024-04-16T07:21:31.021Z,1.00
2024-04-16T07:22:42.509Z,1.20
2024-04-16T07:23:44.786Z,0.90
2024-04-16T07:24:56.208Z,1.83
2024-04-16T07:26:07.537Z,1.30
2024-04-16T07:27:09.999Z,1.30
2024-04-16T07:28:14.475Z,2.05
2024-04-16T07:29:22.756Z,1.50
2024-04-16T07:30:35.819Z,1.25
2024-04-16T07:31:44.814Z,1.20
2024-04-16T07:32:52.736Z,1.00
2024-04-16T07:33:55.692Z,1.48
2024-04-16T07:34:58.475Z,1.08
2024-04-16T07:36:00.950Z,1.40
2024-04-16T07:37:05.817Z,1.33
2024-04-16T07:38:10.647Z,1.38
2024-04-16T07:39:12.866Z,1.48
2024-04-16T07:40:17.930Z,1.60
2024-04-16T07:41:20.829Z,3.40
2024-04-16T07:42:23.120Z,1.50
2024-04-16T07:43:25.449Z,1.20
2024-04-16T07:44:30.368Z,1.55
2024-04-16T07:45:32.593Z,1.75
2024-04-16T07:46:35.061Z,1.73
2024-04-16T07:47:37.976Z,2.08
2024-04-16T07:48:43.229Z,1.90
2024-04-16T07:49:45.414Z,1.60
2024-04-16T07:50:50.024Z,2.45
2024-04-16T07:51:59.734Z,1.83
2024-04-16T07:53:07.950Z,2.42
2024-04-16T07:54:12.813Z,4.13
2024-04-16T07:55:17.561Z,2.05
2024-04-16T07:56:27.133Z,3.30
2024-04-16T07:57:32.037Z,8.50
2024-04-16T07:58:34.409Z,1.80
2024-04-16T07:59:36.850Z,2.00
2024-04-16T08:00:40.995Z,2.30
2024-04-16T08:01:46.059Z,2.00
2024-04-16T08:02:48.772Z,2.90
2024-04-16T08:03:59.916Z,3.42
2024-04-16T08:05:07.879Z,1.70
2024-04-16T08:06:14.936Z,2.58
2024-04-16T08:07:17.137Z,3.30
2024-04-16T08:08:26.288Z,1.42
2024-04-16T08:09:41.584Z,2.58
2024-04-16T08:10:44.021Z,2.08
2024-04-16T08:11:46.239Z,1.80
2024-04-16T08:12:51.060Z,1.77
2024-04-16T08:13:54.685Z,1.45
2024-04-16T08:14:56.884Z,1.67
2024-04-16T08:15:59.301Z,1.38
2024-04-16T08:17:05.155Z,4.60
2024-04-16T08:18:07.858Z,1.50
2024-04-16T08:19:10.083Z,1.40
2024-04-16T08:20:16.725Z,1.00
2024-04-16T08:21:19.592Z,1.02
2024-04-16T08:22:21.960Z,1.42
2024-04-16T08:23:24.256Z,1.40
2024-04-16T08:24:33.085Z,2.03
2024-04-16T08:25:37.999Z,1.30
2024-04-16T08:26:40.738Z,1.33
2024-04-16T08:27:43.298Z,1.63
2024-04-16T08:28:49.392Z,1.50
2024-04-16T08:29:53.168Z,1.48
2024-04-16T08:30:55.702Z,1.58
2024-04-16T08:32:00.563Z,2.92
2024-04-16T08:33:02.768Z,2.22
2024-04-16T08:34:06.199Z,2.17
2024-04-16T08:35:15.834Z,1.67
2024-04-16T08:36:18.403Z,2.70
2024-04-16T08:37:20.699Z,1.60
2024-04-16T08:38:23.015Z,2.28
2024-04-16T08:39:27.908Z,1.80
2024-04-16T08:40:30.367Z,2.10
2024-04-16T08:41:36.679Z,1.10
2024-04-16T08:42:41.435Z,1.30
2024-04-16T08:43:43.741Z,1.25
2024-04-16T08:44:46.348Z,1.17
2024-04-16T08:45:48.699Z,1.25
2024-04-16T08:46:54.305Z,1.25
2024-04-16T08:47:57.749Z,1.30
2024-04-16T08:49:00.998Z,1.00
2024-04-16T08:50:07.929Z,2.78
2024-04-16T08:51:10.258Z,0.98
2024-04-16T08:52:12.693Z,1.10
2024-04-16T08:53:15.053Z,1.00
2024-04-16T08:54:20.648Z,1.00
2024-04-16T08:55:23.438Z,1.50
2024-04-16T08:56:26.728Z,1.08
2024-04-16T08:57:31.711Z,1.35
2024-04-16T08:58:36.767Z,0.80
2024-04-16T08:59:38.940Z,1.17
2024-04-16T09:00:41.616Z,1.10
2024-04-16T09:01:46.921Z,0.90
2024-04-16T09:02:51.792Z,0.90
2024-04-16T09:03:57.485Z,0.90
2024-04-16T09:05:00.648Z,1.88
2024-04-16T09:06:04.898Z,2.30
2024-04-16T09:07:11.331Z,2.97
2024-04-16T09:08:13.969Z,1.60
2024-04-16T09:09:16.186Z,1.58
2024-04-16T09:10:21.091Z,3.10
2024-04-16T09:11:26.313Z,1.75
2024-04-16T09:12:31.759Z,3.70
2024-04-16T09:13:41.163Z,10.60
2024-04-16T09:14:43.512Z,6.03
2024-04-16T09:15:48.384Z,3.03
2024-04-16T09:16:50.691Z,2.15
2024-04-16T09:17:56.721Z,7.63
2024-04-16T09:19:09.617Z,1.50
2024-04-16T09:20:15.327Z,1.92
2024-04-16T09:21:17.920Z,1.70
2024-04-16T09:22:26.073Z,3.25
2024-04-16T09:23:28.534Z,2.42
2024-04-16T09:24:30.812Z,3.13
2024-04-16T09:25:35.992Z,1.40
2024-04-16T09:26:40.694Z,2.72
2024-04-16T09:27:47.116Z,2.47
2024-04-16T09:28:50.335Z,1.30
2024-04-16T09:29:57.934Z,1.20
2024-04-16T09:31:00.600Z,1.48
2024-04-16T09:32:04.434Z,1.30
2024-04-16T09:33:12.002Z,1.38
2024-04-16T09:34:15.905Z,1.08
2024-04-16T09:35:26.080Z,0.90
2024-04-16T09:36:28.421Z,0.90
2024-04-16T09:37:30.856Z,0.73
2024-04-16T09:38:45.520Z,6.35
2024-04-16T09:39:49.808Z,1.02
2024-04-16T09:40:53.774Z,1.05
2024-04-16T09:41:59.001Z,1.40
2024-04-16T09:43:06.202Z,1.40
2024-04-16T09:44:10.457Z,0.85
2024-04-16T09:45:15.765Z,0.50
2024-04-16T09:46:18.925Z,0.80
2024-04-16T09:47:22.106Z,0.80
2024-04-16T09:48:25.653Z,1.63
2024-04-16T09:49:36.838Z,1.27
2024-04-16T09:50:55.968Z,0.80
2024-04-16T09:52:03.354Z,0.95
2024-04-16T09:53:08.315Z,1.20
2024-04-16T09:54:13.363Z,0.80
2024-04-16T09:55:16.668Z,0.80
2024-04-16T09:56:24.913Z,0.80
2024-04-16T09:57:29.317Z,0.90
2024-04-16T09:58:35.186Z,1.45
2024-04-16T09:59:39.136Z,0.85
2024-04-16T10:00:44.167Z,0.60
2024-04-16T10:01:46.534Z,0.88
2024-04-16T10:02:49.290Z,1.02
2024-04-16T10:03:52.592Z,0.90
2024-04-16T10:04:57.766Z,1.52
2024-04-16T10:06:00.359Z,0.60
2024-04-16T10:07:02.741Z,0.70
2024-04-16T10:08:05.730Z,0.82
2024-04-16T10:09:10.827Z,0.77
2024-04-16T10:10:13.728Z,1.30
2024-04-16T10:11:22.346Z,0.70
2024-04-16T10:12:31.647Z,1.63
2024-04-16T10:13:42.179Z,1.20
2024-04-16T10:14:44.861Z,0.70
2024-04-16T10:15:47.346Z,1.00
2024-04-16T10:16:52.932Z,1.00
2024-04-16T10:17:57.569Z,0.73
2024-04-16T10:18:59.867Z,0.90
2024-04-16T10:20:13.951Z,0.80
2024-04-16T10:21:25.053Z,0.60
2024-04-16T10:22:44.639Z,5.40
2024-04-16T10:24:03.365Z,0.88
2024-04-16T10:25:06.324Z,1.55
2024-04-16T10:26:08.745Z,1.35
2024-04-16T10:27:10.993Z,3.25
2024-04-16T10:28:25.681Z,1.02
2024-04-16T10:29:34.070Z,1.35
2024-04-16T10:30:37.152Z,1.15
2024-04-16T10:31:40.532Z,2.40
2024-04-16T10:32:48.799Z,6.82
2024-04-16T10:33:51.105Z,6.90
2024-04-16T10:35:00.441Z,1.48
2024-04-16T10:36:08.503Z,2.33
2024-04-16T10:37:10.855Z,0.80
2024-04-16T10:38:13.274Z,1.05
2024-04-16T10:39:15.830Z,1.10
2024-04-16T10:40:29.751Z,0.90
2024-04-16T10:41:32.720Z,1.63
2024-04-16T10:42:37.469Z,1.70
2024-04-16T10:43:42.755Z,1.17
2024-04-16T10:44:48.234Z,0.90
2024-04-16T10:45:50.743Z,1.27
2024-04-16T10:46:54.997Z,1.00
2024-04-16T10:48:01.858Z,1.30
2024-04-16T10:49:04.649Z,1.00
2024-04-16T10:50:08.393Z,0.80
2024-04-16T10:51:12.758Z,1.13
2024-04-16T10:52:17.450Z,1.10
2024-04-16T10:53:20.942Z,1.20
2024-04-16T10:54:23.116Z,1.30
2024-04-16T10:55:28.176Z,1.17
2024-04-16T10:56:30.384Z,0.98
2024-04-16T10:57:32.520Z,0.75
2024-04-16T10:58:35.316Z,0.88
2024-04-16T10:59:48.615Z,1.60
2024-04-16T11:00:58.819Z,5.95
2024-04-16T11:02:02.519Z,0.93
2024-04-16T11:03:08.304Z,0.80
2024-04-16T11:04:12.058Z,0.70
2024-04-16T11:05:19.267Z,0.50
2024-04-16T11:06:24.516Z,0.70
2024-04-16T11:07:26.847Z,1.42
2024-04-16T11:08:29.104Z,0.80
2024-04-16T11:09:31.261Z,1.30
2024-04-16T11:10:36.520Z,2.10
2024-04-16T11:11:39.807Z,1.38
2024-04-16T11:12:42.128Z,0.60
2024-04-16T11:13:47.076Z,0.73
2024-04-16T11:14:49.364Z,0.93
2024-04-16T11:15:52.805Z,1.13
2024-04-16T11:17:00.312Z,0.80
2024-04-16T11:18:02.641Z,0.75
2024-04-16T11:19:04.904Z,1.92
2024-04-16T11:20:09.422Z,1.80
2024-04-16T11:21:14.433Z,0.90
2024-04-16T11:22:16.920Z,1.05
2024-04-16T11:23:19.335Z,1.30
2024-04-16T11:24:21.794Z,2.65
2024-04-16T11:25:38.802Z,0.82
2024-04-16T11:26:41.354Z,1.25
2024-04-16T11:27:44.219Z,0.80
2024-04-16T11:28:46.417Z,0.82
2024-04-16T11:29:51.380Z,1.13
2024-04-16T11:30:54.659Z,1.10
2024-04-16T11:31:59.652Z,1.27
2024-04-16T11:33:10.578Z,1.92
2024-04-16T11:34:19.765Z,1.33
2024-04-16T11:35:22.374Z,4.45
2024-04-16T11:36:24.524Z,1.60
2024-04-16T11:37:29.329Z,2.22
2024-04-16T11:38:31.562Z,1.88
2024-04-16T11:39:33.746Z,1.00
2024-04-16T11:40:39.547Z,1.77
2024-04-16T11:41:45.054Z,2.47
2024-04-16T11:42:47.225Z,0.80
2024-04-16T11:43:50.055Z,0.98
2024-04-16T11:44:55.747Z,1.52
2024-04-16T11:45:58.637Z,1.65
2024-04-16T11:47:03.545Z,1.05
2024-04-16T11:48:11.144Z,2.20
2024-04-16T11:49:16.051Z,0.85
2024-04-16T11:50:18.371Z,0.93
2024-04-16T11:51:20.531Z,1.27
2024-04-16T11:52:22.671Z,1.00
2024-04-16T11:53:31.583Z,0.82
2024-04-16T11:54:36.322Z,1.00
2024-04-16T11:55:39.370Z,2.13
2024-04-16T11:56:41.708Z,0.98
2024-04-16T11:57:46.998Z,1.15
2024-04-16T11:58:49.310Z,1.15
2024-04-16T11:59:53.112Z,1.65
2024-04-16T12:00:55.561Z,0.75
2024-04-16T12:02:00.798Z,1.05
2024-04-16T12:03:08.507Z,0.80
2024-04-16T12:04:11.541Z,0.73
2024-04-16T12:05:13.858Z,1.25
2024-04-16T12:06:18.834Z,0.85
2024-04-16T12:07:21.866Z,0.80
2024-04-16T12:08:24.761Z,0.80
2024-04-16T12:09:27.150Z,1.15
2024-04-16T12:10:34.407Z,3.08
2024-04-16T12:11:36.835Z,1.23
2024-04-16T12:12:39.175Z,1.40
2024-04-16T12:13:41.601Z,1.60
2024-04-16T12:14:47.109Z,1.65
2024-04-16T12:15:49.395Z,2.33
2024-04-16T12:16:51.998Z,1.08
2024-04-16T12:17:54.369Z,0.95
2024-04-16T12:19:01.925Z,1.58
2024-04-16T12:20:05.710Z,0.80
2024-04-16T12:21:08.803Z,1.17
2024-04-16T12:22:13.598Z,1.75
2024-04-16T12:23:15.773Z,1.00
2024-04-16T12:24:18.024Z,2.03
2024-04-16T12:25:20.077Z,1.73
2024-04-16T12:26:25.262Z,0.90
2024-04-16T12:27:28.818Z,2.35
2024-04-16T12:28:31.084Z,1.00
2024-04-16T12:29:33.388Z,2.50
2024-04-16T12:30:38.173Z,1.33
2024-04-16T12:31:40.332Z,0.98
2024-04-16T12:32:44.445Z,2.63
2024-04-16T12:33:52.232Z,1.98
2024-04-16T12:34:57.196Z,0.80
2024-04-16T12:35:59.602Z,1.63
2024-04-16T12:37:02.537Z,1.75
2024-04-16T12:38:08.485Z,0.90
2024-04-16T12:39:13.993Z,1.10
2024-04-16T12:40:18.032Z,1.38
2024-04-16T12:41:20.146Z,1.08
2024-04-16T12:42:25.204Z,2.88
2024-04-16T12:43:27.665Z,0.93
2024-04-16T12:44:29.831Z,1.33
2024-04-16T12:45:32.157Z,0.90
2024-04-16T12:46:37.226Z,1.77
2024-04-16T12:47:39.693Z,0.93
2024-04-16T12:48:43.669Z,2.15
2024-04-16T12:49:46.065Z,7.72
2024-04-16T12:50:54.187Z,1.13
2024-04-16T12:51:56.542Z,1.50
2024-04-16T12:52:58.929Z,3.10
2024-04-16T12:54:01.204Z,0.88
2024-04-16T12:55:06.555Z,0.90
2024-04-16T12:56:13.969Z,4.32
2024-04-16T12:57:16.291Z,1.00
2024-04-16T12:58:19.026Z,1.00
2024-04-16T12:59:23.892Z,0.95
2024-04-16T13:00:26.509Z,1.00
2024-04-16T13:01:28.771Z,0.75
2024-04-16T13:02:35.821Z,1.88
2024-04-16T13:03:38.705Z,1.20
2024-04-16T13:04:40.987Z,1.63
2024-04-16T13:05:45.726Z,1.25
2024-04-16T13:06:50.421Z,1.15
2024-04-16T13:07:56.507Z,0.90
2024-04-16T13:09:01.343Z,0.95
2024-04-16T13:10:04.139Z,1.10
2024-04-16T13:11:07.244Z,0.80
2024-04-16T13:12:12.412Z,0.90
2024-04-16T13:13:14.613Z,1.20
2024-04-16T13:14:16.863Z,0.90
2024-04-16T13:15:22.039Z,0.90
2024-04-16T13:16:27.113Z,1.35
2024-04-16T13:17:29.345Z,1.27
2024-04-16T13:18:35.465Z,1.02
2024-04-16T13:19:37.846Z,2.05
2024-04-16T13:20:40.106Z,0.90
2024-04-16T13:21:44.988Z,0.90
2024-04-16T13:22:50.256Z,1.08
2024-04-16T13:23:55.017Z,0.93
2024-04-16T13:24:57.212Z,0.75
2024-04-16T13:26:02.129Z,0.75
2024-04-16T13:27:05.115Z,0.80
2024-04-16T13:28:07.538Z,1.75
2024-04-16T13:29:12.495Z,0.85
2024-04-16T13:30:14.994Z,0.90
2024-04-16T13:31:19.113Z,1.58
2024-04-16T13:32:21.654Z,0.68
2024-04-16T13:33:26.820Z,0.82
2024-04-16T13:34:29.038Z,2.25
2024-04-16T13:35:31.224Z,0.90
2024-04-16T13:36:35.984Z,0.80
2024-04-16T13:37:38.321Z,1.40
2024-04-16T13:38:43.187Z,3.42
2024-04-16T13:39:45.763Z,0.80
2024-04-16T13:40:50.957Z,0.80
2024-04-16T13:41:53.452Z,1.27
2024-04-16T13:42:55.727Z,1.02
2024-04-16T13:44:00.453Z,0.95
2024-04-16T13:45:02.782Z,1.05
2024-04-16T13:46:05.346Z,1.13
2024-04-16T13:47:07.682Z,1.17
2024-04-16T13:48:13.363Z,1.45
2024-04-16T13:49:15.689Z,1.52
2024-04-16T13:50:17.859Z,1.73
2024-04-16T13:51:22.731Z,2.20
2024-04-16T13:52:26.086Z,1.23
2024-04-16T13:53:28.620Z,1.52
2024-04-16T13:54:36.106Z,1.27
2024-04-16T13:55:38.483Z,1.25
2024-04-16T13:56:41.070Z,0.98
2024-04-16T13:57:43.391Z,1.00
2024-04-16T13:58:48.374Z,5.13
2024-04-16T13:59:51.159Z,1.75
2024-04-16T14:00:53.364Z,1.38
2024-04-16T14:01:59.346Z,0.93
2024-04-16T14:03:01.739Z,0.88
2024-04-16T14:04:04.060Z,2.80
2024-04-16T14:05:09.155Z,1.30
2024-04-16T14:06:11.324Z,1.58
2024-04-16T14:07:13.658Z,1.00
2024-04-16T14:08:18.527Z,1.52
2024-04-16T14:09:24.450Z,0.90
2024-04-16T14:10:30.535Z,1.20
2024-04-16T14:11:35.516Z,1.15
2024-04-16T14:12:38.381Z,0.85
2024-04-16T14:13:41.179Z,0.90
2024-04-16T14:14:43.676Z,1.17
2024-04-16T14:15:48.432Z,1.05
2024-04-16T14:16:50.592Z,1.10
2024-04-16T14:17:53.048Z,0.93
2024-04-16T14:18:55.456Z,1.00
2024-04-16T14:20:00.296Z,1.45
2024-04-16T14:21:03.134Z,1.48
2024-04-16T14:22:06.046Z,0.80
2024-04-16T14:23:08.329Z,0.85
2024-04-16T14:24:13.418Z,1.00